METARS
Date METAR Location Area
19/04/2014 LGY7 191030Z 22510KT 18/08 Q1011 Aegina Attica
11/04/2014 LGH5 110730Z 31503KT 15/01 Q1016 Ampelokipoi Attica
19/04/2014 LGS5 191030Z 22506KT 18/09 Q 993 Anavissos Attica
19/04/2014 LGO0 190930Z 24809KT 15/06 Q1011 Ano Liosia Attica
19/04/2014 LGB9 191030Z 20304KT 18/08 Q1012 Athens - Gazi Attica
19/04/2014 LGL5 190930Z 20307KT 15/06 Q1010 Ekali Attica
19/04/2014 LGS3 191030Z 13502KT 18/09 Q1011 Faliro Attica
18/04/2014 LGI4 180500Z 00000G31104KT 98/57 Q10062 Hydra Attica
19/04/2014 LGM3 191030Z 15808KT 18/05 Q1013 Hydra Attica
12/04/2014 LGO2 121030Z 11303KT 08/03 Q1020 Imittos Attica
18/04/2014 LGT8 181230Z 20303KT 12/04 Q1007 Ippokratios Attica
19/04/2014 LG99 191030Z 18005G17KT 18/08 Q1011 Kantza Attica
16/04/2014 LG13 161945Z 00000KT 13/11 Q1010 Kifissia Attica
19/04/2014 LGD6 190930Z 20310KT 18/08 Q1010 Lavrio Attica
19/04/2014 LGK0 191030Z 22506G17KT 16/06 Q1011 Marousi Attica
19/04/2014 LG00 190930Z 21005KT 14/04 Q1009 Marousi (Anavrita) Attica
19/04/2014 LGR0 191030Z 24804KT 19/08 Q1011 Nea Smirni Attica
19/04/2014 LGM8 190730Z 20303KT 15/07 Q1012 Neos Kosmos Attica
29/03/2014 LG04 282300Z 00000KT 146/72 Q10114 Paleo Faliro Attica
19/04/2014 LGA3 191109Z 00000KT 17/06 Q1010 Pallini - Kantza 2 Attica
19/04/2014 LGK3 191030Z 22514KT 06/03 Q1012 Parnitha 1230 EAA Attica
19/04/2014 LGT6 191030Z 22505KT 18/06 Q1012 Patissia Attica
19/04/2014 LGX9 191030Z 24812KT 15/06 Q1009 Penteli Attica
19/04/2014 LG67 191100Z 2707830G19980KT 155/75 Q10115 Penteli Attica
19/04/2014 LG88 191109Z 20213G19KT 19/05 Q1010 SCT Peristeri Attica
19/04/2014 LGU0 191030Z 24814KT 18/06 Q1011 Peristeri Attica
19/04/2014 LGY6 191030Z 27007G23KT 19/07 Q1011 Porto Rafti Attica
17/04/2014 LGE6 170600Z 00000KT 123/109 Q10071 Porto Rafti Attica
19/04/2014 LG96 191030Z 22505G16KT 18/08 Q1011 Psychico Attica
13/04/2014 LGZ0 131310Z 1356102G8694KT 159/105 Q10139 Rafina Attica
19/04/2014 LGG2 191030Z 22510KT 18/07 Q1010 Spata Attica
15/04/2014 LGS6 151130Z 11308KT 18/13 Q1012 Spetses Attica
09/04/2014 LG18 090100Z 00000KT 133/100 Q10132 Terpsithea Attica
19/04/2014 LGZ2 191030Z 18009KT 18/07 Q1011 Vari Attica
19/04/2014 LGR6 191030Z 22513KT 13/06 Q1011 Vilia Attica
19/04/2014 LG74 190400Z 00000KT 99/55 Q10081 Ymittos Attica
19/04/2014 LGG1 191100Z 2029558G19980KT 169/70 Q193 Kalivia Thorikou Attica E
19/04/2014 LG45 191030Z 22511KT 17/09 Q1013 Markopoulo Attica E
16/04/2014 LG72 160000Z 00000KT 116/89 Q10078 Keratea Attica SE
18/04/2014 LGW4 182130Z 02302KT 07/06 Q 991 Ag. Ioannis Sfakion Crete
19/04/2014 LGJ9 190930Z 04508KT 18/09 Q1014 Aghios Nikolaos Crete
19/04/2014 LGT4 191030Z 22509KT 19/07 Q1014 Alikianos Crete
19/04/2014 LGB6 191030Z 06804KT 14/07 Q1012 Anogeia Crete
17/04/2014 LGZ6 171030Z 13508KT RA 12/10 Q1008 Askyfou Crete
19/04/2014 LG25 191030Z 22512KT 20/07 Q1013 Chania Crete
19/04/2014 LGN3 191030Z 24809KT 19/06 Q1014 Chania Center Crete
19/04/2014 LG61 191030Z 00011KT 18/11 Q1013 Cost - Irakleio Crete
19/04/2014 LGL9 191030Z 22510KT 18/11 Q1014 Falasarna Crete
19/04/2014 LGL1 191030Z 18010KT 14/07 Q1015 Fourfouras Crete
19/04/2014 LGD4 191030Z 20313KT 16/09 Q1015 Fragmapotamon - Rethymno Crete
19/04/2014 LG30 191030Z 02306KT 18/09 Q1014 Heraklion - Knossos Crete
19/04/2014 LG95 191030Z 20308KT 18/10 Q1015 Ierapetra Crete
19/04/2014 LGP0 191030Z 22511KT 18/11 Q1016 Lentas Hrakleion Crete
17/04/2014 LGD7 171130Z 13512G23KT 16/13 Q1006 Metaxochori - Heraklion Crete
19/04/2014 LGI2 191030Z 24806KT 18/10 Q1015 Mires Crete
19/04/2014 LG36 191030Z 27005KT 18/10 Q1015 Paleochora Crete
19/04/2014 LG58 191030Z 18012KT 18/08 Q1013 Rethymno Crete
19/04/2014 LGT2 191030Z 24807KT 17/11 Q1015 Rethymno - Plakia Crete
19/04/2014 LGY1 191030Z 15803KT 15/07 Q1017 Samaria Crete
19/04/2014 LGB4 191030Z 20303G15KT 08/04 Q1017 Samaria Crete
19/04/2014 LGM2 191030Z 33804KT 18/10 Q1014 Sitia Crete
19/04/2014 LG75 191030Z 22505KT 15/08 Q1017 Spili - Rethymnon Crete
19/04/2014 LG50 191030Z 15803KT 14/06 Q1014 Tzermiado Lasithi Crete
19/04/2014 LG70 191030Z 04504KT 20/08 Q1013 Vrysses Crete
19/04/2014 LGT5 191030Z 00013KT 17/09 Q1014 Amorgos Cyclades
19/04/2014 LGN6 191030Z 22517KT 17/11 Q1012 Andros Cyclades
05/04/2014 LGS7 051430Z 13510KT 18/14 Q1012 Donoussa Cyclades
19/04/2014 LGI0 190930Z 22512KT 17/10 Q1014 Ios Cyclades
19/04/2014 LGP2 191030Z 22515G27KT 16/07 Q1014 Ioulida - Kea Cyclades
19/04/2014 LGP5 191030Z 24810KT 18/10 Q1014 Iraklia Cyclades
17/04/2014 LGE3 171030Z 00002KT 13/11 Q1008 Kea Cyclades
19/04/2014 LGX8 191030Z 22517KT 18/10 Q1013 Koufonissia Cyclades
19/04/2014 LGS0 191030Z 24813KT 16/10 Q1014 Milos Cyclades
19/04/2014 LG66 191030Z 24812KT 17/10 Q1013 Mykonos Cyclades
19/04/2014 LGM0 191030Z 20313G24KT 17/10 Q1014 Naxos Cyclades
19/04/2014 LGV3 191030Z 27002KT 06/06 Q1014 Naxos - Apiranthos Cyclades
19/04/2014 LGT0 191030Z 22509G24KT 18/08 Q1013 Naxos - Apollonas Cyclades
19/04/2014 LGU1 191030Z 27007KT 15/09 Q1014 Naxos - Damarionas Cyclades
19/04/2014 LGU2 191030Z 20307G21KT 12/07 Q1013 Naxos - Koronos Cyclades
19/04/2014 LGN7 191030Z 22504KT 14/09 Q1014 Naxos - Kynidaros Cyclades
19/04/2014 LGW1 191030Z 22507G18KT 17/09 Q1013 Naxos - Melanes Cyclades
19/04/2014 LGO7 191030Z 22513KT 18/10 Q1014 Naxos - Mikri Vigla Cyclades
17/04/2014 LG02 170830Z 27001KT +RA 15/13 Q1009 Paros Cyclades
14/04/2014 LGX5 141030Z 04507KT 16/12 Q1014 Santorini Cyclades
19/04/2014 LGX7 191030Z 27011KT 17/09 Q1014 Schinoussa Cyclades
19/04/2014 LG07 191030Z 00000KT 169/21 Q10104 Tinos Cyclades
12/04/2014 LGB8 122230Z 06803KT 12/07 Q1019 Tinos NOA Cyclades
19/04/2014 LGG6 190930Z 29306G18KT 17/09 Q1015 Kalymnos Dodecanese
18/04/2014 LG65 180630Z 22507KT 15/08 Q1007 Patmos Dodecanese
19/04/2014 LGS9 191030Z 27004KT 16/12 Q1017 Rhodes Dodecanese
19/04/2014 LGM5 191030Z 24806KT 19/10 Q1015 Kasos Dodecanisa
19/04/2014 LGX1 191030Z 22510KT 18/09 Q1015 Kos Dodekanissa
19/04/2014 LGT1 191030Z 29307KT 17/09 Q1012 Fournoi East Aegean
19/04/2014 LGI9 191030Z 27004G15KT 14/09 Q1011 Ikaria East Aegean
19/04/2014 LGI5 191030Z 18008KT 16/09 Q1008 Lemnos East Aegean
19/04/2014 LGI6 190930Z 18005KT 17/10 Q1010 Lesvos East Aegean
18/04/2014 LGJ3 182230Z 22506KT 14/08 Q1009 Lesvos - Thermi East Aegean
19/04/2014 LGZ7 191030Z 18009G23KT 15/09 Q1010 Mantamados East Aegean
19/04/2014 LGY5 190930Z 18010G21KT 14/08 Q1012 Molyvos East Aegean
19/04/2014 LGF1 191030Z 20309KT 18/09 Q1012 Samos East Aegean
19/04/2014 LGW7 191030Z 20323KT 15/08 Q1008 Akrotirio Paksimada Evia
19/04/2014 LGO3 191030Z 20308KT 18/08 Q1009 Chalkida Evia
19/04/2014 LGR5 190930Z 00007G21KT 15/06 Q1010 Kavodoro Evia
09/04/2014 LGY0 090700Z 11300KT 09/05 Q1034 Krieza Evia
19/04/2014 LGX0 191030Z 06803KT 17/06 Q1010 Kymi Evia
25/03/2014 LGT7 251000Z 27004KT 09/07 Q1011 Setta Evia
19/04/2014 LG81 191030Z 18003KT 14/07 Q1009 Steni Evia
19/04/2014 LGC4 191030Z 20311KT 18/09 Q1011 Styra Evia
19/04/2014 LGD3 191030Z 22511G22KT 18/08 Q1011 Zarakes Evia
19/04/2014 LGP6 191030Z 20302KT 10/08 Q1013 Agia Kyriaki Ioanninon Hepirus
14/04/2014 LGO1 141530Z 00000KT 19/08 Q1013 Aridaia Hepirus
19/04/2014 LGD2 191030Z 33802KT 12/11 Q1012 Arta - Kompoti Hepirus
19/04/2014 LG38 191030Z 00003KT 11/09 Q1012 Arta - Vlacherna Hepirus
19/04/2014 LGE4 190930Z 18003KT 06/06 Q1011 Aspraggeloi Hepirus
19/04/2014 LGI3 191030Z 27000KT 09/08 Q1011 Derviziana Hepirus
19/04/2014 LGP4 191030Z 15803KT 09/07 Q1011 Dodoni Hepirus
02/04/2014 LGL8 021430Z 02304KT 24/07 Q1015 Grammos Hepirus
19/04/2014 LG43 191030Z 06801KT 13/10 Q1010 Igoumenitsa Hepirus
19/04/2014 LG49 191030Z 00001KT 09/08 Q1010 Ioannina Anatoli Hepirus
10/04/2014 LGK1 100130Z 24800KT 15/13 Q1011 Kanali, Preveza Hepirus
19/04/2014 LGE0 190930Z 02301KT 06/05 Q1013 Katarraktis - Arta Hepirus
17/04/2014 LGO5 172130Z 13503KT 02/01 Q1007 Kerasovo Konitsa Hepirus
14/04/2014 LGO8 141330Z 18003KT 12/03 Q1013 Metsovo Hepirus
19/04/2014 LGK6 190730Z 33800KT 05/04 Q1011 Papigo Hepirus
19/04/2014 LGF6 190830Z 20309KT 07/06 Q1010 Paramythia Hepirus
19/04/2014 LGK9 191030Z 11301KT 14/12 Q1012 Parga Hepirus
19/04/2014 LGK7 190830Z 18000KT 07/06 Q1011 Pesta Hepirus
19/04/2014 LGY9 191030Z 22501KT 04/04 Q1007 Plikati Ioanninon Hepirus
19/04/2014 LGP1 191030Z 00000KT 06/05 Q1013 Pramanta Hepirus
19/04/2014 LGK2 190930Z 13502KT 06/06 Q1012 Theodoriana, Arta Hepirus
19/04/2014 LGD0 191030Z 02300KT -RA 06/05 Q1011 Tristeno - Ioannina Hepirus
19/04/2014 LGM4 191030Z 20301KT 11/09 Q1011 Tyria Hepirus
19/04/2014 LGR8 191030Z 18001KT -RA 07/06 Q1013 Vourgareli Artas Hepirus
19/04/2014 LGN9 190930Z 15802KT 06/04 Q1011 Vovoussa Hepirus
19/04/2014 LGN0 191030Z 15801KT 08/07 Q1011 Zitsa Hepirus
04/04/2014 LGJ2 040930Z 13507KT 18/10 Q1011 Corfu - Gouvia Ionio
19/04/2014 LGB0 190930Z 29303KT 15/11 Q1012 Ithaki Ionio
19/04/2014 LGI7 191030Z 13505KT 15/13 Q1013 Lefkada Ionio
18/04/2014 LGN1 181830Z 31503KT 12/07 Q1007 Paxoi Ionio
19/04/2014 LGN4 191030Z 22502KT 17/10 Q1012 Zakynthos Ionio
14/04/2014 LGE8 141630Z 11300KT 06/05 Q1015 3-5 Pigadia Macedonia
19/04/2014 LGG9 191030Z 29303KT 14/06 Q1005 Amynteo Macedonia
19/04/2014 LG33 191030Z 20304KT 11/07 Q1007 Chalkidiki - Polygyros Macedonia
19/04/2014 LGJ1 191030Z 20303KT 16/08 Q1007 Chalkidiki - Stratoni Macedonia
19/04/2014 LGZ5 191030Z 18017G30KT 17/10 Q1008 Didymoteicho Macedonia
19/04/2014 LG55 191030Z 09003KT 16/11 Q1006 Dion Macedonia
19/04/2014 LGU8 191030Z 20301KT -RA 12/09 Q1008 Doxato - Drama Macedonia
19/04/2014 LGH3 191050Z 13301KT 12/09 Q1008 Drama Macedonia
19/04/2014 LGH6 191030Z 00000KT -RA 12/09 Q1007 Drama 2 Macedonia
19/04/2014 LGY3 191030Z 22504KT 12/10 Q1008 Eleutheroupoli Macedonia
27/03/2014 LGJ6 272050Z 15916G27KT 02/02 Q1009 Falakro Macedonia
19/04/2014 LG63 191030Z 22506G17KT 12/08 Q1009 Florina Macedonia
19/04/2014 LGZ8 191100Z 202864G4320KT +RA 121/95 Q0 Fotolivos Macedonia
19/04/2014 LG73 191030Z 00000KT 13/10 Q1006 Giannitsa Macedonia
19/04/2014 LGF2 191030Z 13503KT 16/07 Q1006 Grevena Macedonia
19/04/2014 LGO4 191030Z 31507KT 11/07 Q1008 Hmathia - Rizomata Macedonia
17/04/2014 LG93 170830Z 11303KT M03/M05 Q1012 Kaimaktsalan Macedonia
27/03/2014 LGN8 272050Z 19217G43KT 32/29 Q979 Kartakla - Falakro Macedonia
19/04/2014 LGO9 191030Z 22507KT 16/08 Q1007 Kassandreia (Xalkidiki) Macedonia
15/04/2014 LGC0 150230Z 24802KT 08/04 Q1010 Kastoria Macedonia
19/04/2014 LG27 191050Z 18100KT 12/09 Q1009 Kavala - Dexameni Macedonia
05/04/2014 LGA2 052147Z 00000KT 01/00 Q1022 Kavala - Eleftheroupoli Macedonia
19/04/2014 LG42 191030Z 13501KT -RA 11/09 Q1007 Kilkis Macedonia
19/04/2014 LGW8 191030Z 31501KT -RA 10/09 Q1009 Kimisi Macedonia
19/04/2014 LGJ4 191030Z 29307KT 14/08 Q1008 Kozani - Ardassa Macedonia
19/04/2014 LGP3 191030Z 11300KT -SN 02/01 Q1008 Lailias - Serres Macedonia
19/04/2014 LGZ9 191100Z 1803456G6966KT +RA 128/79 Q0 Mavropigi Macedonia
19/04/2014 LG40 191030Z 04500KT 11/08 Q1008 Naousa Macedonia
19/04/2014 LGZ4 191030Z 18005KT 16/10 Q1007 Neos Marmaras Macedonia
19/04/2014 LG48 191030Z 20303KT 08/06 Q 0 Nevrokopi Drama Macedonia
19/04/2014 LGS4 191030Z 09003KT 11/07 Q1007 Notio Pedio - Eordea Macedonia
19/04/2014 LGW0 191030Z 06802KT 11/09 Q1008 Paranesti Macedonia
19/04/2014 LG26 191030Z 29300KT 13/06 Q1005 Ptolemaida Macedonia
16/04/2014 LG87 161030Z 15807KT RA 03/02 Q1004 Seli Ski Center Macedonia
19/04/2014 LGW6 191030Z 04501KT 12/09 Q1009 Serres Macedonia
19/04/2014 LGD9 191030Z 31500KT -RA 10/09 Q1008 Serres - Kerkini Macedonia
19/04/2014 LG14 190600Z 00000G31104KT 83/77 Q10074 Serres - Proti Macedonia
07/04/2014 LGY8 071419Z 31505KT 9999 SCT036 10/00 Q1010 Thassos Macedonia
19/04/2014 LGR9 191030Z 09001KT 15/09 Q1007 Thessaloniki Macedonia
19/04/2014 LGF0 191030Z 24808KT 12/06 Q1006 Variko Macedonia
17/04/2014 LG82 170130Z 24810KT M04/M05 Q1006 Vassilitsa Macedonia
09/04/2014 LGC2 091330Z 31502KT 24/13 Q1010 Vatopedi - Athos Macedonia
19/04/2014 LGE9 191030Z 29301KT -RA 10/08 Q1009 Vegoritida Macedonia
19/04/2014 LGE5 190030Z 00000KT 10/09 Q1002 Veroia Macedonia
19/04/2014 LG98 191030Z 29304KT 08/05 Q1008 Vlasti - Kozani Macedonia
19/04/2014 LGF5 191101Z 18004KT 06/06 Q1008 Vounochori - Kavala Macedonia
19/04/2014 LGU7 191030Z 15803KT 09/07 Q1014 Alagonia Messinia
19/04/2014 LGU6 191030Z 13500KT 16/11 Q1015 Arfara Messinia
19/04/2014 LGU5 191030Z 22503KT 18/08 Q1011 Agioi Theodoroi Peloponissos
19/04/2014 LG52 191030Z 18007KT 17/12 Q1012 Amaliada Peloponissos
19/04/2014 LG77 191030Z 22506G18KT -RA 08/08 Q1013 Andritsaina Peloponissos
19/04/2014 LGT3 191030Z 18003KT 18/07 Q1012 Argos Peloponissos
17/04/2014 LGA8 172100Z 00000KT 00/00 Q 0 Chalandritsa Peloponissos
19/04/2014 LGV0 190930Z 18003KT 16/08 Q1010 Derveni Peloponissos
28/03/2014 LGK4 280730Z 15801KT -RA 03/02 Q1021 Elati Peloponissos
19/04/2014 LGC3 191030Z 18003KT 10/09 Q1013 Foloi - Ilia Peloponissos
19/04/2014 LGX6 191030Z 27004KT 16/05 Q1014 Geraki Peloponissos
19/04/2014 LGB7 191030Z 18006KT 18/13 Q1012 Ilia - Vartholomio Peloponissos
19/04/2014 LG85 191030Z 31507KT 16/08 Q1012 Isthmos Peloponissos
19/04/2014 LGV7 191030Z 13508KT 09/06 Q1013 Kalavryta Peloponissos
19/04/2014 LGZ3 191030Z 18003KT 15/09 Q1012 Kardamyli Peloponissos
19/04/2014 LGJ5 191030Z 13510KT 15/13 Q1013 Katakolo Peloponissos
19/04/2014 LGP7 191030Z 18002KT 10/06 Q1013 11 Kato Vlassia Peloponissos
27/03/2014 LGB2 272000Z 20301KT 27/23 Q1011 Katoachaia Peloponissos
19/04/2014 LGB5 191030Z 24810KT 15/10 Q1013 Kavomalias Peloponissos
19/04/2014 LG17 191100Z 1573456G6966KT 156/74 Q10125 Kipoupoli Kalamata Peloponissos
19/04/2014 LGM7 191030Z 27003KT 20/09 Q1012 Kranidi Peloponissos
19/04/2014 LGV1 191030Z 22506KT 17/10 Q1014 Kyparissia Peloponissos
19/04/2014 LGW9 191030Z 20303KT 06/06 Q1014 Lagadia Peloponissos
17/04/2014 LG92 172230Z 18002KT 10/07 Q1005 Lappa-Larissos-Achaia Peloponissos
07/04/2014 LG91 070630Z 00000KT 21/15 Q1012 Lousika-Olenias-Achaia Peloponissos
19/04/2014 LGV4 191030Z 20316G36KT 12/07 Q1014 Lykochia Peloponissos
19/04/2014 LGG5 191030Z 22504KT 13/10 Q1014 Megalopoli Peloponissos
19/04/2014 LGV2 191030Z 13502KT 14/10 Q1012 Messinia - Kopanaki Peloponissos
19/04/2014 LGF8 191030Z 20312G26KT 17/08 Q1013 Molaoi Peloponissos
19/04/2014 LG56 191030Z 22514G28KT 18/08 Q1013 Monemvasia Peloponissos
19/04/2014 LGE1 191030Z 24816KT 17/08 Q1011 Nemea Peloponissos
19/04/2014 LGD5 191030Z 15802KT 15/11 Q1013 Oleni - Ilia Peloponissos
19/04/2014 LGB3 191030Z 11303KT 13/11 Q1013 Olympia Peloponissos
19/04/2014 LGV6 191030Z 24814KT -SN 02/02 Q1013 Panachaiko Oros Peloponissos
10/04/2014 LGZ1 102330Z 09003KT 10/05 Q1013 Patra Peloponissos
17/04/2014 LG79 170505Z 00000KT 105/79 Q10101 Patra - Agia Peloponissos
19/04/2014 LG71 191100Z 2021728G7830KT 148/100 Q10125 Patra - Drosia Peloponissos
19/04/2014 LG84 191030Z 22518KT 15/12 Q1012 Patra - Port Peloponissos
19/04/2014 LG59 190630Z 00000KT 00/00 Q 0 Pirgos Peloponissos
19/04/2014 LGH8 191030Z 22515KT 15/11 Q1012 Rio Peloponissos
19/04/2014 LGT9 190930Z 15803KT 13/08 Q1011 Romanos - Patra Peloponissos
16/04/2014 LGA0 160830Z 00012G23KT RA 15/13 Q1006 Sagaiika Peloponissos
19/04/2014 LGF7 191030Z 29303KT 16/09 Q1014 Sparti Peloponissos
19/04/2014 LGS2 191030Z 22501KT 06/06 Q1018 Stemnitsa Peloponissos
19/04/2014 LGR1 191030Z 00004KT 13/06 Q1011 Trikala Korinthias Peloponissos
19/04/2014 LG83 191030Z 27004G15KT 12/09 Q1014 Tripoli Peloponissos
19/04/2014 LGU9 191030Z 24801KT 06/05 Q1014 Vytina Peloponissos
19/04/2014 LG86 191030Z 22504KT 16/12 Q1013 Zaxaro Peloponissos
19/04/2014 LGN2 191030Z 18005KT 16/09 Q1010 Alonissos Sporades
19/04/2014 LGI1 191030Z 15814KT 16/10 Q1009 Skyros Sporades
19/04/2014 LGH9 191030Z 15803KT -RA 13/11 Q1014 Agrinio Sterea Ellada
19/04/2014 LGC7 191030Z 00001KT -RA 14/12 Q1012 Aitoliko Sterea Ellada
19/04/2014 LG29 191030Z 15805G17KT 20/05 Q1007 Amfiklia Sterea Ellada
19/04/2014 LGH1 190210Z 00000G31104KT 75/13 Q10053 Amfiklia 2 Sterea Ellada
17/04/2014 LGG8 170830Z 18003KT 13/05 Q1011 Antikira Sterea Ellada
19/04/2014 LG97 191110Z 28006KT 08/06 Q1012 Arachova Sterea Ellada
19/04/2014 LGC5 191030Z 24807KT 07/06 Q1014 Arahova Sterea Ellada
19/04/2014 LGH0 191030Z 24806G26KT 19/07 Q1008 Avlida Sterea Ellada
19/04/2014 LGR2 191030Z 24805KT -RA 10/08 Q1012 Dam of Mornos Sterea Ellada
19/04/2014 LGR3 191030Z 27000KT 09/08 Q1013 Diakopi of Lidoriki Sterea Ellada
19/04/2014 LGW5 191030Z 27007KT 16/07 Q1008 Domokos Sterea Ellada
14/04/2014 LG21 141323Z 24804KT 29/15 Q1014 Evia - Chalkida Sterea Ellada
01/04/2014 LGL3 010600Z 09009KT 03/M01 Q1011 Fterolaka Sterea Ellada
19/04/2014 LGY4 191030Z 29311KT 16/09 Q1012 Galaxidi Sterea Ellada
19/04/2014 LGC8 190900Z 00000G31104KT 119/110 Q10108 Gavalou - Aitol/nia Sterea Ellada
19/04/2014 LGJ7 191030Z 20322G33KT 14/08 Q1012 Kaparelli Sterea Ellada
19/04/2014 LGC9 191030Z 22503KT 10/07 Q1012 Karpenisi Sterea Ellada
19/04/2014 LGP9 191030Z 20310KT 17/07 Q1008 Kleidi Viotias Sterea Ellada
19/04/2014 LGR4 191030Z 20309KT 10/07 Q1012 Koniakos of Lidoriki Sterea Ellada
19/04/2014 LGV9 190930Z 24803KT 18/07 Q1008 Lamia Sterea Ellada
19/04/2014 LGJ8 191030Z 13503KT 21/08 Q1006 Lefkochori Sterea Ellada
18/04/2014 LGI8 180830Z 24810KT 15/06 Q1005 Livadeia Sterea Ellada
19/04/2014 LGE7 191030Z 29316KT 19/09 Q1007 Makrakomi Sterea Ellada
19/04/2014 LGA6 191030Z 24808KT 08/04 Q1009 Mavrolithari - Vardousia Sterea Ellada
19/04/2014 LGK8 190930Z 24809KT -RA 07/06 Q1010 Myriki Sterea Ellada
19/04/2014 LGG4 191030Z 31503KT -RA 07/05 Q1012 Orini Nafpaktia Sterea Ellada
01/04/2014 LGA4 010700Z 09009KT -SN 02/M02 Q1009 Parnassos Sterea Ellada
27/03/2014 LGF9 271530Z 00000KT 03/02 Q1011 Parnassos1950 Sterea Ellada
19/04/2014 LGL0 191030Z 18009G20KT 17/06 Q1009 Polydroso Sterea Ellada
07/04/2014 LGR7 071230Z 04508KT 11/09 Q1025 Prasino - Viotia Sterea Ellada
19/04/2014 LG69 191030Z 27011KT 18/07 Q1010 Tanagra Sterea Ellada
19/04/2014 LGO6 191030Z 22505KT 20/10 Q1009 Theologos Sterea Ellada
19/04/2014 LG94 191030Z 00000KT 107/77 Q10079 Hortiatis Thes/niki
19/04/2014 LG15 191111Z 18402KT 17/M02 Q1008 Kamara Thes/niki Thes/niki
19/04/2014 LGA5 191030Z 18000KT 15/10 Q1007 Lagadas Thes/niki
24/03/2014 LG11 240730Z 12901KT 10/06 Q1006 West Thes/niki Thes/niki
19/04/2014 LGV5 190830Z 11300KT -RA 07/07 Q1010 Tsamantas Thesprotia
19/04/2014 LGL4 191030Z 20301KT 05/04 Q1013 Gardiki Thessalia
19/04/2014 LGW3 191030Z 20304KT 18/07 Q1005 Kalabaka Thessalia
19/04/2014 LGU3 182200Z 202864G3456KT 106/43 Q10035 Larissa Thessalia
19/04/2014 LGL6 190930Z 22502KT 18/07 Q1006 Larissa Thessalia
19/04/2014 LG41 191050Z 2477830G16524KT 206/37 Q10048 Larissa Thessalia
19/04/2014 LGS8 191030Z 22503KT 17/07 Q1007 Larissa - Agia Thessalia
28/03/2014 LGL7 282230Z 24812KT 16/05 Q1014 Limni Plastira Thessalia
26/03/2014 LGU4 260700Z 29304KT 04/M07 Q1013 Olympos Thessalia
19/04/2014 LGE2 191030Z 22510KT 07/03 Q1008 Pertouli Thessalia
19/04/2014 LGY2 191030Z 29302KT 14/05 Q1008 Portaria - Pelio Thessalia
19/04/2014 LG80 191030Z 22515KT 16/08 Q1009 Skopelos - Sporades Thessalia
18/04/2014 LG24 180430Z 31500KT 11/09 Q1003 Sporades - Skiathos Thessalia
19/04/2014 LG57 191030Z 22509G21KT 19/08 Q1007 Trikala Thessalia
19/04/2014 LG51 191030Z 20303KT 19/10 Q1007 Volos Thessalia
19/04/2014 LGG3 190930Z 04502KT 14/07 Q1009 Zagora EAA Thessalia
19/04/2014 LGD8 191030Z 20310KT 17/11 Q1009 Alexandroupolis Thraki
15/04/2014 LGM9 150030Z 15811KT 15/13 Q1006 Imeros Thraki
19/04/2014 LG35 191110Z 17908KT 14/09 Q1007 Komotini Thraki
19/04/2014 LGL2 191030Z 18009G23KT 17/07 Q1008 Metaxades - Evros Thraki
19/04/2014 LG31 191030Z 20314KT 17/08 Q1007 Orestiada Thraki
19/04/2014 LGC1 191030Z 15813KT 16/11 Q1009 Samothraki Thraki
19/04/2014 LGC6 190930Z 24807KT 14/10 Q1008 Xanthi Thraki
www.meteorologia.gr